sensor_id;sensor_type;location;lat;lon;timestamp;P1;durP1;ratioP1;P2;durP2;ratioP2
66523;SDS011;53350;52.210;5.160;2023-04-15T00:00:55;8.85;;;3.72;;
66523;SDS011;53350;52.210;5.160;2023-04-15T00:03:22;12.18;;;3.97;;
66523;SDS011;53350;52.210;5.160;2023-04-15T00:05:50;10.00;;;3.85;;
66523;SDS011;53350;52.210;5.160;2023-04-15T00:08:16;10.80;;;3.67;;
66523;SDS011;53350;52.210;5.160;2023-04-15T00:10:43;16.30;;;4.18;;
66523;SDS011;53350;52.210;5.160;2023-04-15T00:13:10;12.25;;;3.63;;
66523;SDS011;53350;52.210;5.160;2023-04-15T00:15:37;10.18;;;3.60;;
66523;SDS011;53350;52.210;5.160;2023-04-15T00:18:03;11.90;;;4.07;;
66523;SDS011;53350;52.210;5.160;2023-04-15T00:20:29;10.77;;;4.95;;
66523;SDS011;53350;52.210;5.160;2023-04-15T00:22:57;10.00;;;4.10;;
66523;SDS011;53350;52.210;5.160;2023-04-15T00:25:24;9.00;;;4.18;;
66523;SDS011;53350;52.210;5.160;2023-04-15T00:27:51;10.65;;;4.35;;
66523;SDS011;53350;52.210;5.160;2023-04-15T00:30:17;8.63;;;4.10;;
66523;SDS011;53350;52.210;5.160;2023-04-15T00:32:44;10.85;;;4.20;;
66523;SDS011;53350;52.210;5.160;2023-04-15T00:35:11;10.23;;;4.20;;
66523;SDS011;53350;52.210;5.160;2023-04-15T00:37:37;11.05;;;4.07;;
66523;SDS011;53350;52.210;5.160;2023-04-15T00:40:06;9.38;;;3.92;;
66523;SDS011;53350;52.210;5.160;2023-04-15T00:42:37;12.32;;;4.45;;
66523;SDS011;53350;52.210;5.160;2023-04-15T00:45:04;8.93;;;3.97;;
66523;SDS011;53350;52.210;5.160;2023-04-15T00:47:32;8.70;;;3.83;;
66523;SDS011;53350;52.210;5.160;2023-04-15T00:50:01;9.20;;;4.03;;
66523;SDS011;53350;52.210;5.160;2023-04-15T00:52:27;9.20;;;4.07;;
66523;SDS011;53350;52.210;5.160;2023-04-15T00:54:54;11.43;;;4.60;;
66523;SDS011;53350;52.210;5.160;2023-04-15T00:57:22;10.65;;;4.03;;
66523;SDS011;53350;52.210;5.160;2023-04-15T00:59:48;10.05;;;4.38;;
66523;SDS011;53350;52.210;5.160;2023-04-15T01:02:17;12.45;;;4.38;;
66523;SDS011;53350;52.210;5.160;2023-04-15T01:04:44;9.98;;;4.03;;
66523;SDS011;53350;52.210;5.160;2023-04-15T01:07:11;12.60;;;4.15;;
66523;SDS011;53350;52.210;5.160;2023-04-15T01:09:37;8.75;;;3.90;;
66523;SDS011;53350;52.210;5.160;2023-04-15T01:12:06;9.60;;;4.20;;
66523;SDS011;53350;52.210;5.160;2023-04-15T01:14:36;9.43;;;4.15;;
66523;SDS011;53350;52.210;5.160;2023-04-15T01:17:03;9.10;;;4.40;;
66523;SDS011;53350;52.210;5.160;2023-04-15T01:19:29;11.43;;;3.95;;
66523;SDS011;53350;52.210;5.160;2023-04-15T01:21:56;9.40;;;3.97;;
66523;SDS011;53350;52.210;5.160;2023-04-15T01:24:22;10.00;;;4.20;;
66523;SDS011;53350;52.210;5.160;2023-04-15T01:26:52;8.48;;;3.85;;
66523;SDS011;53350;52.210;5.160;2023-04-15T01:29:18;10.95;;;4.63;;
66523;SDS011;53350;52.210;5.160;2023-04-15T01:31:49;10.15;;;4.25;;
66523;SDS011;53350;52.210;5.160;2023-04-15T01:34:16;12.35;;;4.90;;
66523;SDS011;53350;52.210;5.160;2023-04-15T01:36:43;12.88;;;4.20;;
66523;SDS011;53350;52.210;5.160;2023-04-15T01:39:09;13.95;;;4.35;;
66523;SDS011;53350;52.210;5.160;2023-04-15T01:41:36;11.43;;;4.28;;
66523;SDS011;53350;52.210;5.160;2023-04-15T01:44:04;11.00;;;4.07;;
66523;SDS011;53350;52.210;5.160;2023-04-15T01:46:31;10.85;;;4.43;;
66523;SDS011;53350;52.210;5.160;2023-04-15T01:48:58;14.85;;;4.65;;
66523;SDS011;53350;52.210;5.160;2023-04-15T01:51:24;10.45;;;4.55;;
66523;SDS011;53350;52.210;5.160;2023-04-15T01:53:51;8.95;;;4.85;;
66523;SDS011;53350;52.210;5.160;2023-04-15T01:56:17;11.32;;;4.35;;
66523;SDS011;53350;52.210;5.160;2023-04-15T01:58:44;9.88;;;4.13;;
66523;SDS011;53350;52.210;5.160;2023-04-15T02:01:12;10.25;;;4.85;;
66523;SDS011;53350;52.210;5.160;2023-04-15T02:03:39;13.90;;;4.70;;
66523;SDS011;53350;52.210;5.160;2023-04-15T02:06:05;10.80;;;4.40;;
66523;SDS011;53350;52.210;5.160;2023-04-15T02:08:31;10.50;;;4.88;;
66523;SDS011;53350;52.210;5.160;2023-04-15T02:10:58;13.55;;;4.97;;
66523;SDS011;53350;52.210;5.160;2023-04-15T02:13:25;11.07;;;4.72;;
66523;SDS011;53350;52.210;5.160;2023-04-15T02:15:51;12.05;;;4.43;;
66523;SDS011;53350;52.210;5.160;2023-04-15T02:18:21;10.27;;;4.43;;
66523;SDS011;53350;52.210;5.160;2023-04-15T02:20:47;9.70;;;4.13;;
66523;SDS011;53350;52.210;5.160;2023-04-15T02:23:16;8.75;;;4.18;;
66523;SDS011;53350;52.210;5.160;2023-04-15T02:25:43;7.82;;;3.70;;
66523;SDS011;53350;52.210;5.160;2023-04-15T02:28:09;9.85;;;4.25;;
66523;SDS011;53350;52.210;5.160;2023-04-15T02:30:36;9.13;;;3.80;;
66523;SDS011;53350;52.210;5.160;2023-04-15T02:33:02;11.38;;;4.80;;
66523;SDS011;53350;52.210;5.160;2023-04-15T02:35:30;9.02;;;4.68;;
66523;SDS011;53350;52.210;5.160;2023-04-15T02:37:57;15.27;;;5.05;;
66523;SDS011;53350;52.210;5.160;2023-04-15T02:40:23;8.88;;;4.15;;
66523;SDS011;53350;52.210;5.160;2023-04-15T02:42:50;10.63;;;4.75;;
66523;SDS011;53350;52.210;5.160;2023-04-15T02:45:16;10.35;;;5.10;;
66523;SDS011;53350;52.210;5.160;2023-04-15T02:47:47;9.07;;;5.05;;
66523;SDS011;53350;52.210;5.160;2023-04-15T02:50:14;9.77;;;4.68;;
66523;SDS011;53350;52.210;5.160;2023-04-15T02:52:42;11.95;;;4.88;;
66523;SDS011;53350;52.210;5.160;2023-04-15T02:55:09;9.05;;;4.65;;
66523;SDS011;53350;52.210;5.160;2023-04-15T02:57:36;8.98;;;4.25;;
66523;SDS011;53350;52.210;5.160;2023-04-15T03:00:03;10.75;;;4.75;;
66523;SDS011;53350;52.210;5.160;2023-04-15T03:02:33;9.65;;;4.60;;
66523;SDS011;53350;52.210;5.160;2023-04-15T03:05:00;9.70;;;4.47;;
66523;SDS011;53350;52.210;5.160;2023-04-15T03:07:26;11.35;;;4.90;;
66523;SDS011;53350;52.210;5.160;2023-04-15T03:09:54;11.40;;;4.82;;
66523;SDS011;53350;52.210;5.160;2023-04-15T03:12:21;13.85;;;5.15;;
66523;SDS011;53350;52.210;5.160;2023-04-15T03:14:47;9.88;;;4.70;;
66523;SDS011;53350;52.210;5.160;2023-04-15T03:17:13;9.13;;;4.50;;
66523;SDS011;53350;52.210;5.160;2023-04-15T03:19:40;10.68;;;4.55;;
66523;SDS011;53350;52.210;5.160;2023-04-15T03:22:06;9.70;;;4.53;;
66523;SDS011;53350;52.210;5.160;2023-04-15T03:24:33;10.38;;;4.75;;
66523;SDS011;53350;52.210;5.160;2023-04-15T03:27:01;8.90;;;4.72;;
66523;SDS011;53350;52.210;5.160;2023-04-15T03:29:27;11.90;;;4.77;;
66523;SDS011;53350;52.210;5.160;2023-04-15T03:31:53;10.88;;;4.88;;
66523;SDS011;53350;52.210;5.160;2023-04-15T03:34:20;13.27;;;5.28;;
66523;SDS011;53350;52.210;5.160;2023-04-15T03:36:46;12.50;;;5.03;;
66523;SDS011;53350;52.210;5.160;2023-04-15T03:39:13;12.18;;;4.95;;
66523;SDS011;53350;52.210;5.160;2023-04-15T03:41:39;11.95;;;5.57;;
66523;SDS011;53350;52.210;5.160;2023-04-15T03:44:07;15.23;;;5.60;;
66523;SDS011;53350;52.210;5.160;2023-04-15T03:46:34;9.73;;;4.90;;
66523;SDS011;53350;52.210;5.160;2023-04-15T03:49:00;10.20;;;4.68;;
66523;SDS011;53350;52.210;5.160;2023-04-15T03:51:27;8.98;;;4.78;;
66523;SDS011;53350;52.210;5.160;2023-04-15T03:53:53;8.35;;;4.78;;
66523;SDS011;53350;52.210;5.160;2023-04-15T03:56:20;11.13;;;5.07;;
66523;SDS011;53350;52.210;5.160;2023-04-15T03:58:46;11.65;;;5.43;;
66523;SDS011;53350;52.210;5.160;2023-04-15T04:01:14;11.15;;;5.30;;
66523;SDS011;53350;52.210;5.160;2023-04-15T04:03:40;14.05;;;5.90;;
66523;SDS011;53350;52.210;5.160;2023-04-15T04:06:07;10.13;;;5.18;;
66523;SDS011;53350;52.210;5.160;2023-04-15T04:08:34;10.20;;;5.60;;
66523;SDS011;53350;52.210;5.160;2023-04-15T04:11:00;9.98;;;5.35;;
66523;SDS011;53350;52.210;5.160;2023-04-15T04:13:27;12.50;;;5.20;;
66523;SDS011;53350;52.210;5.160;2023-04-15T04:15:53;9.57;;;4.47;;
66523;SDS011;53350;52.210;5.160;2023-04-15T04:18:21;14.73;;;5.95;;
66523;SDS011;53350;52.210;5.160;2023-04-15T04:20:48;10.80;;;6.13;;
66523;SDS011;53350;52.210;5.160;2023-04-15T04:23:14;11.18;;;5.63;;
66523;SDS011;53350;52.210;5.160;2023-04-15T04:25:41;12.73;;;5.40;;
66523;SDS011;53350;52.210;5.160;2023-04-15T04:28:07;10.77;;;5.90;;
66523;SDS011;53350;52.210;5.160;2023-04-15T04:30:35;11.98;;;6.13;;
66523;SDS011;53350;52.210;5.160;2023-04-15T04:33:02;13.57;;;5.85;;
66523;SDS011;53350;52.210;5.160;2023-04-15T04:35:30;10.68;;;5.95;;
66523;SDS011;53350;52.210;5.160;2023-04-15T04:37:58;9.93;;;5.63;;
66523;SDS011;53350;52.210;5.160;2023-04-15T04:40:25;11.75;;;6.03;;
66523;SDS011;53350;52.210;5.160;2023-04-15T04:42:52;13.98;;;6.57;;
66523;SDS011;53350;52.210;5.160;2023-04-15T04:45:18;14.05;;;6.88;;
66523;SDS011;53350;52.210;5.160;2023-04-15T04:47:45;11.73;;;6.20;;
66523;SDS011;53350;52.210;5.160;2023-04-15T04:50:12;15.38;;;6.32;;
66523;SDS011;53350;52.210;5.160;2023-04-15T04:52:39;13.73;;;5.70;;
66523;SDS011;53350;52.210;5.160;2023-04-15T04:55:06;11.70;;;6.63;;
66523;SDS011;53350;52.210;5.160;2023-04-15T04:57:33;8.30;;;5.20;;
66523;SDS011;53350;52.210;5.160;2023-04-15T05:00:01;10.52;;;5.03;;
66523;SDS011;53350;52.210;5.160;2023-04-15T05:02:29;14.13;;;6.07;;
66523;SDS011;53350;52.210;5.160;2023-04-15T05:04:56;13.00;;;5.95;;
66523;SDS011;53350;52.210;5.160;2023-04-15T05:07:22;11.43;;;5.32;;
66523;SDS011;53350;52.210;5.160;2023-04-15T05:09:51;10.35;;;6.03;;
66523;SDS011;53350;52.210;5.160;2023-04-15T05:12:17;11.07;;;6.43;;
66523;SDS011;53350;52.210;5.160;2023-04-15T05:14:43;11.55;;;5.50;;
66523;SDS011;53350;52.210;5.160;2023-04-15T05:17:10;11.93;;;6.50;;
66523;SDS011;53350;52.210;5.160;2023-04-15T05:19:37;9.88;;;4.97;;
66523;SDS011;53350;52.210;5.160;2023-04-15T05:22:04;13.82;;;6.28;;
66523;SDS011;53350;52.210;5.160;2023-04-15T05:24:31;9.85;;;5.75;;
66523;SDS011;53350;52.210;5.160;2023-04-15T05:26:58;12.35;;;6.13;;
66523;SDS011;53350;52.210;5.160;2023-04-15T05:31:52;11.45;;;5.70;;
66523;SDS011;53350;52.210;5.160;2023-04-15T05:34:18;11.43;;;5.15;;
66523;SDS011;53350;52.210;5.160;2023-04-15T05:36:44;14.50;;;6.57;;
66523;SDS011;53350;52.210;5.160;2023-04-15T05:39:11;12.70;;;6.47;;
66523;SDS011;53350;52.210;5.160;2023-04-15T05:41:37;13.70;;;6.60;;
66523;SDS011;53350;52.210;5.160;2023-04-15T05:44:05;13.32;;;6.97;;
66523;SDS011;53350;52.210;5.160;2023-04-15T05:46:32;11.10;;;5.75;;
66523;SDS011;53350;52.210;5.160;2023-04-15T05:48:58;11.30;;;6.53;;
66523;SDS011;53350;52.210;5.160;2023-04-15T05:51:25;12.40;;;6.00;;
66523;SDS011;53350;52.210;5.160;2023-04-15T05:53:51;10.85;;;6.43;;
66523;SDS011;53350;52.210;5.160;2023-04-15T05:56:18;10.35;;;6.03;;
66523;SDS011;53350;52.210;5.160;2023-04-15T05:58:45;14.77;;;5.93;;
66523;SDS011;53350;52.210;5.160;2023-04-15T06:01:13;10.30;;;6.55;;
66523;SDS011;53350;52.210;5.160;2023-04-15T06:03:39;12.50;;;7.43;;
66523;SDS011;53350;52.210;5.160;2023-04-15T06:06:06;14.07;;;7.22;;
66523;SDS011;53350;52.210;5.160;2023-04-15T06:08:32;12.35;;;6.88;;
66523;SDS011;53350;52.210;5.160;2023-04-15T06:10:59;13.50;;;7.97;;
66523;SDS011;53350;52.210;5.160;2023-04-15T06:13:25;15.90;;;7.65;;
66523;SDS011;53350;52.210;5.160;2023-04-15T06:15:52;14.23;;;8.35;;
66523;SDS011;53350;52.210;5.160;2023-04-15T06:18:20;10.60;;;5.85;;
66523;SDS011;53350;52.210;5.160;2023-04-15T06:20:46;14.23;;;7.03;;
66523;SDS011;53350;52.210;5.160;2023-04-15T06:23:12;15.63;;;6.75;;
66523;SDS011;53350;52.210;5.160;2023-04-15T06:25:39;14.45;;;7.30;;
66523;SDS011;53350;52.210;5.160;2023-04-15T06:28:06;10.80;;;5.88;;
66523;SDS011;53350;52.210;5.160;2023-04-15T06:30:32;12.98;;;7.20;;
66523;SDS011;53350;52.210;5.160;2023-04-15T06:32:59;11.82;;;8.18;;
66523;SDS011;53350;52.210;5.160;2023-04-15T06:35:28;12.75;;;6.97;;
66523;SDS011;53350;52.210;5.160;2023-04-15T06:37:55;14.23;;;7.88;;
66523;SDS011;53350;52.210;5.160;2023-04-15T06:40:21;13.43;;;7.40;;
66523;SDS011;53350;52.210;5.160;2023-04-15T06:42:48;11.52;;;7.25;;
66523;SDS011;53350;52.210;5.160;2023-04-15T06:45:14;13.82;;;8.32;;
66523;SDS011;53350;52.210;5.160;2023-04-15T06:47:41;11.40;;;7.10;;
66523;SDS011;53350;52.210;5.160;2023-04-15T06:50:07;10.63;;;6.15;;
66523;SDS011;53350;52.210;5.160;2023-04-15T06:52:36;8.98;;;6.00;;
66523;SDS011;53350;52.210;5.160;2023-04-15T06:55:03;14.20;;;7.25;;
66523;SDS011;53350;52.210;5.160;2023-04-15T06:57:31;11.37;;;6.20;;
66523;SDS011;53350;52.210;5.160;2023-04-15T06:59:57;12.35;;;8.43;;
66523;SDS011;53350;52.210;5.160;2023-04-15T07:02:23;12.05;;;7.97;;
66523;SDS011;53350;52.210;5.160;2023-04-15T07:04:50;12.13;;;7.63;;
66523;SDS011;53350;52.210;5.160;2023-04-15T07:07:16;13.15;;;8.25;;
66523;SDS011;53350;52.210;5.160;2023-04-15T07:09:44;15.77;;;7.80;;
66523;SDS011;53350;52.210;5.160;2023-04-15T07:12:11;11.75;;;7.72;;
66523;SDS011;53350;52.210;5.160;2023-04-15T07:14:37;13.40;;;7.82;;
66523;SDS011;53350;52.210;5.160;2023-04-15T07:17:04;8.65;;;5.22;;
66523;SDS011;53350;52.210;5.160;2023-04-15T07:19:30;10.07;;;7.25;;
66523;SDS011;53350;52.210;5.160;2023-04-15T07:21:57;11.65;;;6.78;;
66523;SDS011;53350;52.210;5.160;2023-04-15T07:24:23;11.55;;;6.65;;
66523;SDS011;53350;52.210;5.160;2023-04-15T07:26:52;9.70;;;6.47;;
66523;SDS011;53350;52.210;5.160;2023-04-15T07:29:18;11.60;;;6.75;;
66523;SDS011;53350;52.210;5.160;2023-04-15T07:31:45;14.85;;;7.40;;
66523;SDS011;53350;52.210;5.160;2023-04-15T07:34:11;12.52;;;6.13;;
66523;SDS011;53350;52.210;5.160;2023-04-15T07:36:38;12.63;;;5.95;;
66523;SDS011;53350;52.210;5.160;2023-04-15T07:39:04;13.50;;;6.50;;
66523;SDS011;53350;52.210;5.160;2023-04-15T07:41:31;9.63;;;5.40;;
66523;SDS011;53350;52.210;5.160;2023-04-15T07:43:59;7.55;;;4.43;;
66523;SDS011;53350;52.210;5.160;2023-04-15T07:46:25;12.57;;;6.47;;
66523;SDS011;53350;52.210;5.160;2023-04-15T07:48:52;9.63;;;6.20;;
66523;SDS011;53350;52.210;5.160;2023-04-15T07:51:19;9.15;;;5.00;;
66523;SDS011;53350;52.210;5.160;2023-04-15T07:53:46;10.38;;;5.43;;
66523;SDS011;53350;52.210;5.160;2023-04-15T07:56:12;19.15;;;6.35;;
66523;SDS011;53350;52.210;5.160;2023-04-15T07:58:39;9.38;;;5.57;;
66523;SDS011;53350;52.210;5.160;2023-04-15T08:01:06;9.45;;;5.35;;
66523;SDS011;53350;52.210;5.160;2023-04-15T08:03:33;13.25;;;5.95;;
66523;SDS011;53350;52.210;5.160;2023-04-15T08:05:59;8.18;;;5.10;;
66523;SDS011;53350;52.210;5.160;2023-04-15T08:08:26;13.80;;;6.18;;
66523;SDS011;53350;52.210;5.160;2023-04-15T08:10:52;8.82;;;5.22;;
66523;SDS011;53350;52.210;5.160;2023-04-15T08:13:19;11.60;;;5.53;;
66523;SDS011;53350;52.210;5.160;2023-04-15T08:15:45;9.88;;;4.53;;
66523;SDS011;53350;52.210;5.160;2023-04-15T08:18:19;9.20;;;4.65;;
66523;SDS011;53350;52.210;5.160;2023-04-15T08:20:46;16.60;;;5.75;;
66523;SDS011;53350;52.210;5.160;2023-04-15T08:23:13;9.23;;;4.85;;
66523;SDS011;53350;52.210;5.160;2023-04-15T08:25:40;10.32;;;5.80;;
66523;SDS011;53350;52.210;5.160;2023-04-15T08:28:07;11.00;;;6.28;;
66523;SDS011;53350;52.210;5.160;2023-04-15T08:30:34;10.38;;;6.22;;
66523;SDS011;53350;52.210;5.160;2023-04-15T08:33:00;10.25;;;4.93;;
66523;SDS011;53350;52.210;5.160;2023-04-15T08:35:28;8.48;;;5.35;;
66523;SDS011;53350;52.210;5.160;2023-04-15T08:37:55;6.22;;;2.80;;
66523;SDS011;53350;52.210;5.160;2023-04-15T08:40:21;10.57;;;5.18;;
66523;SDS011;53350;52.210;5.160;2023-04-15T08:42:58;7.53;;;4.05;;
66523;SDS011;53350;52.210;5.160;2023-04-15T08:45:27;6.85;;;3.30;;
66523;SDS011;53350;52.210;5.160;2023-04-15T08:47:54;7.45;;;3.63;;
66523;SDS011;53350;52.210;5.160;2023-04-15T08:50:22;8.47;;;3.90;;
66523;SDS011;53350;52.210;5.160;2023-04-15T08:52:53;8.98;;;4.30;;
66523;SDS011;53350;52.210;5.160;2023-04-15T08:55:20;6.57;;;3.05;;
66523;SDS011;53350;52.210;5.160;2023-04-15T08:57:48;5.80;;;3.03;;
66523;SDS011;53350;52.210;5.160;2023-04-15T09:00:16;13.73;;;3.23;;
66523;SDS011;53350;52.210;5.160;2023-04-15T09:02:43;4.22;;;1.92;;
66523;SDS011;53350;52.210;5.160;2023-04-15T09:05:09;7.78;;;3.42;;
66523;SDS011;53350;52.210;5.160;2023-04-15T09:07:36;8.40;;;3.40;;
66523;SDS011;53350;52.210;5.160;2023-04-15T09:10:04;11.88;;;4.35;;
66523;SDS011;53350;52.210;5.160;2023-04-15T09:12:32;12.30;;;3.08;;
66523;SDS011;53350;52.210;5.160;2023-04-15T09:15:00;8.02;;;4.10;;
66523;SDS011;53350;52.210;5.160;2023-04-15T09:17:27;7.93;;;3.83;;
66523;SDS011;53350;52.210;5.160;2023-04-15T09:20:06;11.75;;;4.25;;
66523;SDS011;53350;52.210;5.160;2023-04-15T09:22:33;10.23;;;4.18;;
66523;SDS011;53350;52.210;5.160;2023-04-15T09:25:01;9.73;;;3.43;;
66523;SDS011;53350;52.210;5.160;2023-04-15T09:27:29;5.45;;;2.15;;
66523;SDS011;53350;52.210;5.160;2023-04-15T09:29:55;8.77;;;3.33;;
66523;SDS011;53350;52.210;5.160;2023-04-15T09:32:22;8.00;;;3.15;;
66523;SDS011;53350;52.210;5.160;2023-04-15T09:34:48;6.70;;;2.72;;
66523;SDS011;53350;52.210;5.160;2023-04-15T09:37:15;4.40;;;1.92;;
66523;SDS011;53350;52.210;5.160;2023-04-15T09:39:45;3.53;;;1.60;;
66523;SDS011;53350;52.210;5.160;2023-04-15T09:42:13;5.03;;;2.10;;
66523;SDS011;53350;52.210;5.160;2023-04-15T09:44:42;4.75;;;2.30;;
66523;SDS011;53350;52.210;5.160;2023-04-15T09:47:09;5.20;;;1.58;;
66523;SDS011;53350;52.210;5.160;2023-04-15T09:49:54;4.43;;;1.98;;
66523;SDS011;53350;52.210;5.160;2023-04-15T09:52:21;4.25;;;1.90;;
66523;SDS011;53350;52.210;5.160;2023-04-15T09:54:47;6.40;;;2.42;;
66523;SDS011;53350;52.210;5.160;2023-04-15T09:57:18;4.15;;;1.90;;
66523;SDS011;53350;52.210;5.160;2023-04-15T09:59:47;5.38;;;2.30;;
66523;SDS011;53350;52.210;5.160;2023-04-15T10:02:13;4.88;;;2.25;;
66523;SDS011;53350;52.210;5.160;2023-04-15T10:04:41;4.32;;;2.15;;
66523;SDS011;53350;52.210;5.160;2023-04-15T10:07:09;5.87;;;2.40;;
66523;SDS011;53350;52.210;5.160;2023-04-15T10:09:37;5.65;;;2.65;;
66523;SDS011;53350;52.210;5.160;2023-04-15T10:12:04;6.03;;;2.55;;
66523;SDS011;53350;52.210;5.160;2023-04-15T10:14:31;5.03;;;2.80;;
66523;SDS011;53350;52.210;5.160;2023-04-15T10:17:04;5.55;;;2.03;;
66523;SDS011;53350;52.210;5.160;2023-04-15T10:19:33;6.28;;;3.10;;
66523;SDS011;53350;52.210;5.160;2023-04-15T10:22:02;7.97;;;3.70;;
66523;SDS011;53350;52.210;5.160;2023-04-15T10:24:29;7.65;;;3.33;;
66523;SDS011;53350;52.210;5.160;2023-04-15T10:26:56;7.85;;;3.30;;
66523;SDS011;53350;52.210;5.160;2023-04-15T10:29:24;6.88;;;3.60;;
66523;SDS011;53350;52.210;5.160;2023-04-15T10:31:52;6.70;;;3.40;;
66523;SDS011;53350;52.210;5.160;2023-04-15T10:34:21;7.93;;;4.00;;
66523;SDS011;53350;52.210;5.160;2023-04-15T10:36:49;8.27;;;4.38;;
66523;SDS011;53350;52.210;5.160;2023-04-15T10:42:05;7.40;;;4.20;;
66523;SDS011;53350;52.210;5.160;2023-04-15T10:44:34;7.97;;;4.07;;
66523;SDS011;53350;52.210;5.160;2023-04-15T10:47:03;7.05;;;3.50;;
66523;SDS011;53350;52.210;5.160;2023-04-15T10:49:33;7.40;;;3.53;;
66523;SDS011;53350;52.210;5.160;2023-04-15T10:52:00;10.80;;;4.45;;
66523;SDS011;53350;52.210;5.160;2023-04-15T10:54:31;5.88;;;3.15;;
66523;SDS011;53350;52.210;5.160;2023-04-15T10:57:06;6.63;;;3.67;;
66523;SDS011;53350;52.210;5.160;2023-04-15T10:59:35;6.45;;;3.33;;
66523;SDS011;53350;52.210;5.160;2023-04-15T11:02:03;8.27;;;4.03;;
66523;SDS011;53350;52.210;5.160;2023-04-15T11:04:51;8.15;;;4.38;;
66523;SDS011;53350;52.210;5.160;2023-04-15T11:07:35;8.07;;;4.35;;
66523;SDS011;53350;52.210;5.160;2023-04-15T11:10:02;7.35;;;4.38;;
66523;SDS011;53350;52.210;5.160;2023-04-15T11:12:33;10.70;;;4.70;;
66523;SDS011;53350;52.210;5.160;2023-04-15T11:15:08;6.65;;;3.47;;
66523;SDS011;53350;52.210;5.160;2023-04-15T11:17:53;6.63;;;3.30;;
66523;SDS011;53350;52.210;5.160;2023-04-15T11:20:22;7.28;;;4.00;;
66523;SDS011;53350;52.210;5.160;2023-04-15T11:22:49;6.80;;;2.97;;
66523;SDS011;53350;52.210;5.160;2023-04-15T11:25:22;9.75;;;3.30;;
66523;SDS011;53350;52.210;5.160;2023-04-15T11:27:50;5.75;;;2.65;;
66523;SDS011;53350;52.210;5.160;2023-04-15T11:30:18;6.57;;;2.45;;
66523;SDS011;53350;52.210;5.160;2023-04-15T11:32:47;4.18;;;1.80;;
66523;SDS011;53350;52.210;5.160;2023-04-15T11:35:15;6.35;;;2.28;;
66523;SDS011;53350;52.210;5.160;2023-04-15T11:37:43;5.63;;;2.42;;
66523;SDS011;53350;52.210;5.160;2023-04-15T11:42:39;5.15;;;2.13;;
66523;SDS011;53350;52.210;5.160;2023-04-15T11:45:06;8.30;;;2.65;;
66523;SDS011;53350;52.210;5.160;2023-04-15T11:47:33;4.97;;;2.03;;
66523;SDS011;53350;52.210;5.160;2023-04-15T11:50:12;5.68;;;2.30;;
66523;SDS011;53350;52.210;5.160;2023-04-15T11:52:40;5.57;;;2.65;;
66523;SDS011;53350;52.210;5.160;2023-04-15T11:55:08;6.95;;;2.42;;
66523;SDS011;53350;52.210;5.160;2023-04-15T11:57:34;4.22;;;1.90;;
66523;SDS011;53350;52.210;5.160;2023-04-15T12:00:01;3.72;;;1.98;;
66523;SDS011;53350;52.210;5.160;2023-04-15T12:02:29;4.80;;;2.42;;
66523;SDS011;53350;52.210;5.160;2023-04-15T12:05:01;4.63;;;2.17;;
66523;SDS011;53350;52.210;5.160;2023-04-15T12:07:29;21.92;;;3.15;;
66523;SDS011;53350;52.210;5.160;2023-04-15T12:09:55;4.75;;;2.15;;
66523;SDS011;53350;52.210;5.160;2023-04-15T12:12:26;10.52;;;2.38;;
66523;SDS011;53350;52.210;5.160;2023-04-15T12:14:55;5.32;;;2.20;;
66523;SDS011;53350;52.210;5.160;2023-04-15T12:19:54;5.82;;;2.38;;
66523;SDS011;53350;52.210;5.160;2023-04-15T12:22:21;4.28;;;2.00;;
66523;SDS011;53350;52.210;5.160;2023-04-15T12:24:52;6.97;;;2.25;;
66523;SDS011;53350;52.210;5.160;2023-04-15T12:27:24;5.78;;;2.20;;
66523;SDS011;53350;52.210;5.160;2023-04-15T12:29:56;7.97;;;2.45;;
66523;SDS011;53350;52.210;5.160;2023-04-15T12:32:29;5.47;;;2.00;;
66523;SDS011;53350;52.210;5.160;2023-04-15T12:34:55;5.35;;;2.00;;
66523;SDS011;53350;52.210;5.160;2023-04-15T12:37:22;6.35;;;2.35;;
66523;SDS011;53350;52.210;5.160;2023-04-15T12:39:48;6.57;;;2.30;;
66523;SDS011;53350;52.210;5.160;2023-04-15T12:42:16;6.78;;;2.15;;
66523;SDS011;53350;52.210;5.160;2023-04-15T12:44:45;6.25;;;2.30;;
66523;SDS011;53350;52.210;5.160;2023-04-15T12:47:11;5.47;;;2.17;;
66523;SDS011;53350;52.210;5.160;2023-04-15T12:49:38;6.55;;;2.22;;
66523;SDS011;53350;52.210;5.160;2023-04-15T12:52:04;8.48;;;2.50;;
66523;SDS011;53350;52.210;5.160;2023-04-15T12:54:31;4.88;;;1.63;;
66523;SDS011;53350;52.210;5.160;2023-04-15T12:56:58;7.68;;;2.40;;
66523;SDS011;53350;52.210;5.160;2023-04-15T12:59:25;5.53;;;2.40;;
66523;SDS011;53350;52.210;5.160;2023-04-15T13:01:53;6.38;;;1.90;;
66523;SDS011;53350;52.210;5.160;2023-04-15T13:04:19;6.07;;;2.38;;
66523;SDS011;53350;52.210;5.160;2023-04-15T13:06:46;5.18;;;1.88;;
66523;SDS011;53350;52.210;5.160;2023-04-15T13:09:13;8.10;;;2.15;;
66523;SDS011;53350;52.210;5.160;2023-04-15T13:11:40;5.10;;;2.08;;
66523;SDS011;53350;52.210;5.160;2023-04-15T13:14:07;4.38;;;1.80;;
66523;SDS011;53350;52.210;5.160;2023-04-15T13:16:35;8.25;;;2.17;;
66523;SDS011;53350;52.210;5.160;2023-04-15T13:19:03;4.95;;;1.60;;
66523;SDS011;53350;52.210;5.160;2023-04-15T13:21:30;5.95;;;1.80;;
66523;SDS011;53350;52.210;5.160;2023-04-15T13:23:59;3.45;;;1.50;;
66523;SDS011;53350;52.210;5.160;2023-04-15T13:26:25;3.42;;;1.40;;
66523;SDS011;53350;52.210;5.160;2023-04-15T13:28:52;5.93;;;1.60;;
66523;SDS011;53350;52.210;5.160;2023-04-15T13:31:18;3.60;;;1.20;;
66523;SDS011;53350;52.210;5.160;2023-04-15T13:33:45;6.55;;;1.10;;
66523;SDS011;53350;52.210;5.160;2023-04-15T13:36:12;5.78;;;1.30;;
66523;SDS011;53350;52.210;5.160;2023-04-15T13:38:39;3.38;;;1.02;;
66523;SDS011;53350;52.210;5.160;2023-04-15T13:41:05;8.75;;;1.25;;
66523;SDS011;53350;52.210;5.160;2023-04-15T13:43:32;3.92;;;1.20;;
66523;SDS011;53350;52.210;5.160;2023-04-15T13:45:58;5.50;;;1.30;;
66523;SDS011;53350;52.210;5.160;2023-04-15T13:48:25;4.82;;;1.95;;
66523;SDS011;53350;52.210;5.160;2023-04-15T13:50:51;4.13;;;1.40;;
66523;SDS011;53350;52.210;5.160;2023-04-15T13:53:19;3.17;;;0.85;;
66523;SDS011;53350;52.210;5.160;2023-04-15T13:55:45;3.80;;;1.27;;
66523;SDS011;53350;52.210;5.160;2023-04-15T13:58:12;6.00;;;1.50;;
66523;SDS011;53350;52.210;5.160;2023-04-15T14:00:38;5.63;;;1.05;;
66523;SDS011;53350;52.210;5.160;2023-04-15T14:03:05;7.03;;;1.20;;
66523;SDS011;53350;52.210;5.160;2023-04-15T14:05:31;5.22;;;1.30;;
66523;SDS011;53350;52.210;5.160;2023-04-15T14:07:58;2.83;;;1.17;;
66523;SDS011;53350;52.210;5.160;2023-04-15T14:10:26;4.53;;;1.33;;
66523;SDS011;53350;52.210;5.160;2023-04-15T14:12:53;6.72;;;1.27;;
66523;SDS011;53350;52.210;5.160;2023-04-15T14:15:19;2.88;;;0.98;;
66523;SDS011;53350;52.210;5.160;2023-04-15T14:17:46;8.30;;;1.55;;
66523;SDS011;53350;52.210;5.160;2023-04-15T14:20:12;5.43;;;1.38;;
66523;SDS011;53350;52.210;5.160;2023-04-15T14:22:39;8.60;;;1.50;;
66523;SDS011;53350;52.210;5.160;2023-04-15T14:25:06;4.10;;;1.10;;
66523;SDS011;53350;52.210;5.160;2023-04-15T14:27:34;4.82;;;1.08;;
66523;SDS011;53350;52.210;5.160;2023-04-15T14:30:01;6.60;;;1.17;;
66523;SDS011;53350;52.210;5.160;2023-04-15T14:32:27;7.97;;;1.50;;
66523;SDS011;53350;52.210;5.160;2023-04-15T14:34:54;5.28;;;1.65;;
66523;SDS011;53350;52.210;5.160;2023-04-15T14:37:20;3.17;;;1.00;;
66523;SDS011;53350;52.210;5.160;2023-04-15T14:39:47;4.97;;;1.25;;
66523;SDS011;53350;52.210;5.160;2023-04-15T14:42:13;2.95;;;0.95;;
66523;SDS011;53350;52.210;5.160;2023-04-15T14:44:41;8.15;;;1.20;;
66523;SDS011;53350;52.210;5.160;2023-04-15T14:47:08;5.63;;;1.13;;
66523;SDS011;53350;52.210;5.160;2023-04-15T14:49:35;6.18;;;1.65;;
66523;SDS011;53350;52.210;5.160;2023-04-15T14:52:01;9.82;;;1.88;;